createdAt,value
2023-04-23T00:01:04.390Z,14.46
2023-04-23T00:03:33.450Z,14.45
2023-04-23T00:06:04.726Z,14.42
2023-04-23T00:08:33.257Z,14.38
2023-04-23T00:11:01.308Z,14.35
2023-04-23T00:13:30.779Z,14.31
2023-04-23T00:15:59.056Z,14.27
2023-04-23T00:18:27.003Z,14.21
2023-04-23T00:20:54.672Z,14.18
2023-04-23T00:23:22.452Z,14.17
2023-04-23T00:25:50.581Z,14.20
2023-04-23T00:28:19.620Z,14.21
2023-04-23T00:30:51.095Z,14.27
2023-04-23T00:33:18.926Z,14.28
2023-04-23T00:35:46.556Z,14.32
2023-04-23T00:38:14.142Z,14.37
2023-04-23T00:40:42.149Z,14.42
2023-04-23T00:43:09.940Z,14.46
2023-04-23T00:45:37.752Z,14.53
2023-04-23T00:48:08.070Z,14.57
2023-04-23T00:50:35.643Z,14.60
2023-04-23T00:53:03.216Z,14.65
2023-04-23T00:55:30.958Z,14.67
2023-04-23T00:57:58.558Z,14.70
2023-04-23T01:00:26.301Z,14.70
2023-04-23T01:02:54.798Z,14.71
2023-04-23T01:05:24.943Z,14.71
2023-04-23T01:07:52.633Z,14.72
2023-04-23T01:10:20.987Z,14.73
2023-04-23T01:12:49.801Z,14.71
2023-04-23T01:15:17.490Z,14.71
2023-04-23T01:17:45.173Z,14.73
2023-04-23T01:20:13.139Z,14.76
2023-04-23T01:22:42.183Z,14.79
2023-04-23T01:25:10.806Z,14.80
2023-04-23T01:27:38.807Z,14.80
2023-04-23T01:30:07.684Z,14.83
2023-04-23T01:32:36.422Z,14.83
2023-04-23T01:35:05.061Z,14.80
2023-04-23T01:37:33.680Z,14.77
2023-04-23T01:40:02.690Z,14.79
2023-04-23T01:42:30.425Z,14.75
2023-04-23T01:44:58.064Z,14.75
2023-04-23T01:47:26.182Z,14.78
2023-04-23T01:49:54.024Z,14.77
2023-04-23T01:52:21.659Z,14.75
2023-04-23T01:54:49.299Z,14.74
2023-04-23T01:57:23.936Z,14.76
2023-04-23T01:59:51.710Z,14.74
2023-04-23T02:02:19.778Z,14.75
2023-04-23T02:04:49.299Z,14.71
2023-04-23T02:07:17.106Z,14.71
2023-04-23T02:09:44.778Z,14.69
2023-04-23T02:12:12.381Z,14.67
2023-04-23T02:14:41.592Z,14.65
2023-04-23T02:17:09.478Z,14.68
2023-04-23T02:19:37.088Z,14.69
2023-04-23T02:22:04.716Z,14.69
2023-04-23T02:24:32.266Z,14.69
2023-04-23T02:26:59.881Z,14.69
2023-04-23T02:29:27.445Z,14.68
2023-04-23T02:31:56.543Z,14.63
2023-04-23T02:34:24.150Z,14.57
2023-04-23T02:36:52.726Z,14.51
2023-04-23T02:39:20.596Z,14.52
2023-04-23T02:41:48.215Z,14.49
2023-04-23T02:44:15.888Z,14.46
2023-04-23T02:46:43.527Z,14.46
2023-04-23T02:49:12.465Z,14.48
2023-04-23T02:51:40.046Z,14.47
2023-04-23T02:54:07.604Z,14.47
2023-04-23T02:56:35.224Z,14.47
2023-04-23T02:59:02.805Z,14.47
2023-04-23T03:01:30.469Z,14.47
2023-04-23T03:03:58.389Z,14.41
2023-04-23T03:06:27.749Z,14.39
2023-04-23T03:08:55.990Z,14.33
2023-04-23T03:11:23.727Z,14.31
2023-04-23T03:13:51.328Z,14.30
2023-04-23T03:16:18.989Z,14.28
2023-04-23T03:18:46.603Z,14.27
2023-04-23T03:21:14.252Z,14.25
2023-04-23T03:23:43.221Z,14.21
2023-04-23T03:26:10.809Z,14.17
2023-04-23T03:28:38.418Z,14.16
2023-04-23T03:31:06.107Z,14.16
2023-04-23T03:33:33.702Z,14.16
2023-04-23T03:36:01.283Z,14.18
2023-04-23T03:38:29.038Z,14.17
2023-04-23T03:40:58.066Z,14.17
2023-04-23T03:43:25.783Z,14.14
2023-04-23T03:45:53.396Z,14.15
2023-04-23T03:48:21.679Z,14.16
2023-04-23T03:50:49.437Z,14.15
2023-04-23T03:53:17.689Z,14.13
2023-04-23T03:55:45.640Z,14.14
2023-04-23T03:58:14.669Z,14.14
2023-04-23T04:00:42.309Z,14.15
2023-04-23T04:03:10.022Z,14.15
2023-04-23T04:05:37.796Z,14.15
2023-04-23T04:08:05.839Z,14.14
2023-04-23T04:10:33.437Z,14.11
2023-04-23T04:13:01.521Z,14.12
2023-04-23T04:15:30.652Z,14.11
2023-04-23T04:17:58.179Z,14.07
2023-04-23T04:20:25.788Z,13.99
2023-04-23T04:22:53.573Z,13.96
2023-04-23T04:25:22.233Z,13.90
2023-04-23T04:27:50.560Z,13.81
2023-04-23T04:30:18.676Z,13.75
2023-04-23T04:32:50.858Z,13.73
2023-04-23T04:35:18.987Z,13.77
2023-04-23T04:37:46.617Z,13.76
2023-04-23T04:40:15.266Z,13.83
2023-04-23T04:42:42.849Z,13.84
2023-04-23T04:45:11.663Z,13.79
2023-04-23T04:47:39.264Z,13.77
2023-04-23T04:50:09.346Z,13.70
2023-04-23T04:52:37.077Z,13.66
2023-04-23T04:55:05.342Z,13.62
2023-04-23T04:57:32.941Z,13.54
2023-04-23T05:00:05.121Z,13.48
2023-04-23T05:02:32.940Z,13.55
2023-04-23T05:05:00.625Z,13.55
2023-04-23T05:07:29.648Z,13.55
2023-04-23T05:09:57.220Z,13.51
2023-04-23T05:12:24.969Z,13.51
2023-04-23T05:14:54.257Z,13.59
2023-04-23T05:17:22.043Z,13.65
2023-04-23T05:19:49.685Z,13.72
2023-04-23T05:22:18.271Z,13.74
2023-04-23T05:24:47.234Z,13.73
2023-04-23T05:27:14.823Z,13.72
2023-04-23T05:29:42.411Z,13.75
2023-04-23T05:32:10.439Z,13.80
2023-04-23T05:34:38.056Z,13.84
2023-04-23T05:37:06.191Z,13.88
2023-04-23T05:39:33.914Z,13.91
2023-04-23T05:42:03.082Z,13.92
2023-04-23T05:44:30.659Z,13.92
2023-04-23T05:46:58.246Z,13.89
2023-04-23T05:49:27.118Z,13.89
2023-04-23T05:51:54.700Z,13.91
2023-04-23T05:54:22.494Z,13.94
2023-04-23T05:56:50.015Z,13.96
2023-04-23T05:59:18.924Z,13.98
2023-04-23T06:01:47.763Z,13.95
2023-04-23T06:04:15.880Z,13.96
2023-04-23T06:06:43.972Z,14.00
2023-04-23T06:09:11.541Z,14.04
2023-04-23T06:11:39.203Z,14.05
2023-04-23T06:14:06.784Z,14.07
2023-04-23T06:16:35.803Z,14.08
2023-04-23T06:19:04.579Z,14.11
2023-04-23T06:21:32.476Z,14.11
2023-04-23T06:24:00.075Z,14.12
2023-04-23T06:26:27.838Z,14.11
2023-04-23T06:28:55.497Z,14.09
2023-04-23T06:31:23.253Z,14.10
2023-04-23T06:33:52.286Z,14.13
2023-04-23T06:36:19.855Z,14.11
2023-04-23T06:38:47.454Z,14.09
2023-04-23T06:41:15.172Z,14.08
2023-04-23T06:43:43.207Z,14.11
2023-04-23T06:46:10.862Z,14.13
2023-04-23T06:48:38.663Z,14.12
2023-04-23T06:51:08.139Z,14.13
2023-04-23T06:53:35.845Z,14.15
2023-04-23T06:56:03.450Z,14.12
2023-04-23T06:58:32.364Z,14.08
2023-04-23T07:01:01.158Z,14.02
2023-04-23T07:03:29.049Z,13.98
2023-04-23T07:05:56.689Z,13.97
2023-04-23T07:08:25.620Z,13.97
2023-04-23T07:10:53.352Z,14.00
2023-04-23T07:13:21.061Z,14.07
2023-04-23T07:15:49.108Z,14.14
2023-04-23T07:18:17.692Z,14.17
2023-04-23T07:20:45.460Z,14.21
2023-04-23T07:23:13.161Z,14.23
2023-04-23T07:25:42.088Z,14.27
2023-04-23T07:28:09.658Z,14.34
2023-04-23T07:30:37.630Z,14.41
2023-04-23T07:33:05.272Z,14.41
2023-04-23T07:35:32.850Z,14.39
2023-04-23T07:38:00.417Z,14.41
2023-04-23T07:40:27.943Z,14.53
2023-04-23T07:42:56.924Z,14.65
2023-04-23T07:45:25.659Z,14.77
2023-04-23T07:47:53.294Z,14.90
2023-04-23T07:50:21.039Z,14.96
2023-04-23T07:52:48.578Z,15.00
2023-04-23T07:55:16.344Z,14.99
2023-04-23T07:57:43.836Z,15.03
2023-04-23T08:00:14.445Z,15.07
2023-04-23T08:02:42.695Z,15.08
2023-04-23T08:05:11.016Z,15.05
2023-04-23T08:07:38.692Z,15.07
2023-04-23T08:10:07.389Z,15.19
2023-04-23T08:12:36.041Z,15.29
2023-04-23T08:15:04.333Z,15.40
2023-04-23T08:17:33.311Z,15.55
2023-04-23T08:20:00.970Z,15.65
2023-04-23T08:22:28.471Z,15.70
2023-04-23T08:24:56.067Z,15.67
2023-04-23T08:27:23.564Z,15.66
2023-04-23T08:29:51.753Z,15.76
2023-04-23T08:32:19.466Z,15.87
2023-04-23T08:34:48.417Z,16.02
2023-04-23T08:37:27.064Z,16.18
2023-04-23T08:39:57.608Z,16.26
2023-04-23T08:42:36.890Z,16.20
2023-04-23T08:45:05.383Z,16.14
2023-04-23T08:47:34.176Z,16.10
2023-04-23T08:50:05.869Z,16.09
2023-04-23T08:52:35.804Z,16.18
2023-04-23T08:55:10.612Z,16.38
2023-04-23T08:57:39.966Z,16.44
2023-04-23T09:00:11.018Z,16.38
2023-04-23T09:02:39.925Z,16.31
2023-04-23T09:05:10.029Z,16.21
2023-04-23T09:07:37.900Z,16.23
2023-04-23T09:10:07.209Z,16.26
2023-04-23T09:12:36.941Z,16.26
2023-04-23T09:15:10.445Z,16.33
2023-04-23T09:17:40.871Z,16.51
2023-04-23T09:20:10.983Z,16.64
2023-04-23T09:22:45.983Z,16.74
2023-04-23T09:25:16.295Z,16.75
2023-04-23T09:27:43.943Z,16.76
2023-04-23T09:30:13.229Z,16.78
2023-04-23T09:32:42.521Z,16.76
2023-04-23T09:35:15.077Z,16.74
2023-04-23T09:37:43.223Z,16.77
2023-04-23T09:40:14.179Z,16.80
2023-04-23T09:42:41.774Z,16.89
2023-04-23T09:45:12.367Z,16.94
2023-04-23T09:47:41.348Z,16.98
2023-04-23T09:50:10.519Z,17.07
2023-04-23T09:52:41.569Z,17.28
2023-04-23T09:55:09.954Z,17.35
2023-04-23T09:57:38.345Z,17.31
2023-04-23T10:00:15.597Z,17.30
2023-04-23T10:02:49.145Z,17.36
2023-04-23T10:05:24.206Z,17.54
2023-04-23T10:07:57.378Z,17.66
2023-04-23T10:10:25.698Z,17.80
2023-04-23T10:12:55.744Z,18.02
2023-04-23T10:15:26.293Z,18.37
2023-04-23T10:17:54.706Z,18.70
2023-04-23T10:20:23.740Z,18.97
2023-04-23T10:22:53.524Z,19.05
2023-04-23T10:25:25.630Z,19.07
2023-04-23T10:27:54.767Z,19.02
2023-04-23T10:30:23.292Z,18.92
2023-04-23T10:32:51.567Z,18.90
2023-04-23T10:35:19.347Z,18.88
2023-04-23T10:37:48.357Z,18.82
2023-04-23T10:40:22.145Z,18.73
2023-04-23T10:42:52.341Z,18.65
2023-04-23T10:45:25.434Z,18.55
2023-04-23T10:47:55.034Z,18.59
2023-04-23T10:50:24.517Z,18.70
2023-04-23T10:52:53.714Z,18.79
2023-04-23T10:55:23.214Z,18.90
2023-04-23T10:58:03.747Z,19.08
2023-04-23T11:00:45.338Z,19.40
2023-04-23T11:03:31.040Z,19.66
2023-04-23T11:05:59.224Z,19.72
2023-04-23T11:08:26.985Z,19.73
2023-04-23T11:10:57.409Z,19.77
2023-04-23T11:13:28.019Z,19.92
2023-04-23T11:16:15.427Z,20.14
2023-04-23T11:19:02.340Z,20.19
2023-04-23T11:21:57.482Z,20.16
2023-04-23T11:24:25.238Z,20.21
2023-04-23T11:26:53.439Z,20.13
2023-04-23T11:29:24.675Z,20.04
2023-04-23T11:34:24.520Z,19.99
2023-04-23T11:36:54.586Z,19.95
2023-04-23T11:39:24.117Z,19.88
2023-04-23T11:41:52.481Z,19.81
2023-04-23T11:44:21.493Z,19.81
2023-04-23T11:46:51.396Z,19.92
2023-04-23T11:49:19.957Z,19.99
2023-04-23T11:51:47.930Z,20.00
2023-04-23T11:54:16.285Z,19.98
2023-04-23T11:56:43.883Z,19.87
2023-04-23T11:59:11.794Z,19.70
2023-04-23T12:01:47.345Z,19.54
2023-04-23T12:04:17.397Z,19.39
2023-04-23T12:06:47.465Z,19.16
2023-04-23T12:09:17.024Z,19.06
2023-04-23T12:11:46.248Z,19.00
2023-04-23T12:14:16.198Z,19.01
2023-04-23T12:16:45.737Z,19.01
2023-04-23T12:19:16.880Z,19.04
2023-04-23T12:21:54.433Z,19.11
2023-04-23T12:24:23.548Z,19.16
2023-04-23T12:26:54.484Z,19.19
2023-04-23T12:29:23.326Z,19.25
2023-04-23T12:31:52.207Z,19.37
2023-04-23T12:34:22.215Z,19.42
2023-04-23T12:36:53.492Z,19.52
2023-04-23T12:39:26.156Z,19.62
2023-04-23T12:41:55.270Z,19.64
2023-04-23T12:44:23.272Z,19.66
2023-04-23T12:46:57.457Z,19.69
2023-04-23T12:49:27.941Z,19.72
2023-04-23T12:52:01.041Z,19.79
2023-04-23T12:54:31.589Z,19.84
2023-04-23T12:56:59.967Z,19.86
2023-04-23T12:59:30.384Z,19.85
2023-04-23T13:02:01.953Z,19.84
2023-04-23T13:04:35.261Z,19.88
2023-04-23T13:07:03.729Z,19.92
2023-04-23T13:09:31.408Z,19.94
2023-04-23T13:12:00.509Z,19.99
2023-04-23T13:14:29.152Z,20.05
2023-04-23T13:16:57.971Z,20.12
2023-04-23T13:19:25.649Z,20.13
2023-04-23T13:21:54.704Z,20.12
2023-04-23T13:24:22.402Z,20.08
2023-04-23T13:26:50.160Z,20.10
2023-04-23T13:29:17.723Z,20.13
2023-04-23T13:31:45.605Z,20.19
2023-04-23T13:34:13.269Z,20.23
2023-04-23T13:36:42.237Z,20.33
2023-04-23T13:39:14.133Z,20.39
2023-04-23T13:41:41.792Z,20.36
2023-04-23T13:44:09.606Z,20.30
2023-04-23T13:46:37.664Z,20.22
2023-04-23T13:49:05.737Z,20.19
2023-04-23T13:51:36.068Z,20.19
2023-04-23T13:54:04.516Z,20.14
2023-04-23T13:56:33.612Z,20.10
2023-04-23T14:01:33.217Z,20.16
2023-04-23T14:04:00.980Z,20.15
2023-04-23T14:06:28.819Z,20.13
2023-04-23T14:08:56.398Z,20.16
2023-04-23T14:11:24.184Z,20.19
2023-04-23T14:13:53.291Z,20.19
2023-04-23T14:16:20.983Z,20.22
2023-04-23T14:18:48.639Z,20.22
2023-04-23T14:21:16.498Z,20.20
2023-04-23T14:23:46.475Z,20.17
2023-04-23T14:26:26.251Z,20.03
2023-04-23T14:28:59.089Z,19.83
2023-04-23T14:31:27.047Z,19.66
2023-04-23T14:33:56.068Z,19.51
2023-04-23T14:36:23.773Z,19.40
2023-04-23T14:38:51.480Z,19.29
2023-04-23T14:41:19.017Z,19.21
2023-04-23T14:43:46.543Z,19.14
2023-04-23T14:46:15.525Z,19.05
2023-04-23T14:48:43.248Z,18.83
2023-04-23T14:51:10.853Z,18.59
2023-04-23T14:53:38.405Z,18.40
2023-04-23T14:56:06.812Z,18.22
2023-04-23T14:58:34.548Z,18.00
2023-04-23T15:01:02.127Z,17.89
2023-04-23T15:03:31.230Z,17.69
2023-04-23T15:05:58.987Z,17.43
2023-04-23T15:08:26.679Z,17.24
2023-04-23T15:10:54.320Z,17.05
2023-04-23T15:13:40.312Z,16.96
2023-04-23T15:16:40.012Z,16.96
2023-04-23T15:19:14.951Z,16.97
2023-04-23T15:21:43.101Z,17.01
2023-04-23T15:24:10.964Z,17.00
2023-04-23T15:26:39.069Z,16.97
2023-04-23T15:29:08.663Z,16.90
2023-04-23T15:31:36.625Z,16.87
2023-04-23T15:34:06.208Z,16.85
2023-04-23T15:36:37.271Z,16.82
2023-04-23T15:39:05.048Z,16.76
2023-04-23T15:41:33.128Z,16.67
2023-04-23T15:44:01.143Z,16.65
2023-04-23T15:46:28.872Z,16.71
2023-04-23T15:48:56.567Z,16.73
2023-04-23T15:51:24.170Z,16.70
2023-04-23T15:53:53.259Z,16.69
2023-04-23T15:56:20.799Z,16.69
2023-04-23T15:58:49.820Z,16.71
2023-04-23T16:01:17.897Z,16.74
2023-04-23T16:03:53.754Z,16.73
2023-04-23T16:06:29.598Z,16.69
2023-04-23T16:08:58.941Z,16.68
2023-04-23T16:11:28.176Z,16.68
2023-04-23T16:13:56.973Z,16.67
2023-04-23T16:16:24.650Z,16.69
2023-04-23T16:18:53.460Z,16.68
2023-04-23T16:21:21.752Z,16.69
2023-04-23T16:23:49.706Z,16.63
2023-04-23T16:26:18.973Z,16.58
2023-04-23T16:28:52.217Z,16.55
2023-04-23T16:31:28.595Z,16.50
2023-04-23T16:33:56.651Z,16.47
2023-04-23T16:36:24.239Z,16.44
2023-04-23T16:38:51.850Z,16.44
2023-04-23T16:41:21.453Z,16.44
2023-04-23T16:43:49.025Z,16.42
2023-04-23T16:46:16.908Z,16.42
2023-04-23T16:48:45.667Z,16.41
2023-04-23T16:51:14.248Z,16.42
2023-04-23T16:53:41.837Z,16.43
2023-04-23T16:56:09.605Z,16.44
2023-04-23T16:58:38.541Z,16.43
2023-04-23T17:01:06.256Z,16.37
2023-04-23T17:03:36.452Z,16.33
2023-04-23T17:06:12.711Z,16.29
2023-04-23T17:08:41.128Z,16.26
2023-04-23T17:11:08.955Z,16.23
2023-04-23T17:13:37.921Z,16.22
2023-04-23T17:16:05.593Z,16.23
2023-04-23T17:18:33.234Z,16.27
2023-04-23T17:21:01.208Z,16.31
2023-04-23T17:23:28.900Z,16.32
2023-04-23T17:25:56.486Z,16.31
2023-04-23T17:28:24.062Z,16.17
2023-04-23T17:30:53.948Z,15.93
2023-04-23T17:33:23.765Z,15.69
2023-04-23T17:35:53.239Z,15.44
2023-04-23T17:38:21.675Z,15.21
2023-04-23T17:40:50.572Z,15.06
2023-04-23T17:43:18.611Z,14.97
2023-04-23T17:45:47.547Z,14.82
2023-04-23T17:48:16.803Z,14.62
2023-04-23T17:50:44.768Z,14.38
2023-04-23T17:53:12.533Z,14.19
2023-04-23T17:55:40.125Z,13.99
2023-04-23T17:58:08.966Z,13.86
2023-04-23T18:00:36.896Z,13.74
2023-04-23T18:03:06.402Z,13.58
2023-04-23T18:05:35.834Z,13.44
2023-04-23T18:08:04.473Z,13.32
2023-04-23T18:10:32.272Z,13.21
2023-04-23T18:13:03.747Z,13.10
2023-04-23T18:15:33.123Z,13.01
2023-04-23T18:18:00.769Z,12.98
2023-04-23T18:20:29.210Z,12.95
2023-04-23T18:22:58.705Z,12.94
2023-04-23T18:25:26.820Z,12.94
2023-04-23T18:27:57.977Z,12.95
2023-04-23T18:30:26.214Z,12.92
2023-04-23T18:33:03.862Z,12.85
2023-04-23T18:35:31.498Z,12.78
2023-04-23T18:38:06.885Z,12.72
2023-04-23T18:40:34.606Z,12.70
2023-04-23T18:43:02.718Z,12.68
2023-04-23T18:45:30.389Z,12.63
2023-04-23T18:48:00.082Z,12.61
2023-04-23T18:50:38.369Z,12.59
2023-04-23T18:53:07.604Z,12.55
2023-04-23T18:55:35.425Z,12.50
2023-04-23T18:58:03.027Z,12.49
2023-04-23T19:00:30.847Z,12.49
2023-04-23T19:02:59.065Z,12.46
2023-04-23T19:05:27.053Z,12.42
2023-04-23T19:07:54.628Z,12.36
2023-04-23T19:10:23.780Z,12.28
2023-04-23T19:12:51.315Z,12.22
2023-04-23T19:15:19.088Z,12.21
2023-04-23T19:17:46.787Z,12.22
2023-04-23T19:20:15.643Z,12.23
2023-04-23T19:22:43.320Z,12.26
2023-04-23T19:25:11.138Z,12.30
2023-04-23T19:27:40.029Z,12.21
2023-04-23T19:30:09.992Z,12.11
2023-04-23T19:32:37.575Z,12.04
2023-04-23T19:35:05.842Z,12.00
2023-04-23T19:37:33.368Z,11.95
2023-04-23T19:40:00.959Z,11.89
2023-04-23T19:42:29.916Z,11.85
2023-04-23T19:44:58.843Z,11.83
2023-04-23T19:47:26.610Z,11.80
2023-04-23T19:49:54.223Z,11.78
2023-04-23T19:52:25.031Z,11.77
2023-04-23T19:54:52.628Z,11.76
2023-04-23T19:57:22.200Z,11.78
2023-04-23T19:59:50.070Z,11.79
2023-04-23T20:02:18.956Z,11.80
2023-04-23T20:04:47.424Z,11.81
2023-04-23T20:07:15.377Z,11.83
2023-04-23T20:09:43.169Z,11.85
2023-04-23T20:12:11.021Z,11.84
2023-04-23T20:14:38.555Z,11.85
2023-04-23T20:17:06.728Z,11.84
2023-04-23T20:19:35.734Z,11.81
2023-04-23T20:22:03.912Z,11.76
2023-04-23T20:24:31.530Z,11.75
2023-04-23T20:26:59.086Z,11.78
2023-04-23T20:29:27.456Z,11.84
2023-04-23T20:31:55.071Z,11.97
2023-04-23T20:34:22.609Z,12.07
2023-04-23T20:36:52.072Z,12.14
2023-04-23T20:39:23.910Z,12.20
2023-04-23T20:41:52.353Z,12.30
2023-04-23T20:44:23.265Z,12.43
2023-04-23T20:46:51.412Z,12.50
2023-04-23T20:49:19.292Z,12.56
2023-04-23T20:51:47.262Z,12.58
2023-04-23T20:54:16.392Z,12.58
2023-04-23T20:56:44.189Z,12.54
2023-04-23T20:59:12.266Z,12.48
2023-04-23T21:01:39.895Z,12.45
2023-04-23T21:04:07.720Z,12.44
2023-04-23T21:06:35.469Z,12.40
2023-04-23T21:09:04.583Z,12.33
2023-04-23T21:11:33.592Z,12.24
2023-04-23T21:14:01.549Z,12.15
2023-04-23T21:16:29.246Z,12.09
2023-04-23T21:18:56.829Z,12.06
2023-04-23T21:21:27.867Z,12.07
2023-04-23T21:23:55.842Z,12.08
2023-04-23T21:26:23.973Z,12.11
2023-04-23T21:28:52.833Z,12.14
2023-04-23T21:31:31.034Z,12.19
2023-04-23T21:33:58.569Z,12.27
2023-04-23T21:36:26.168Z,12.38
2023-04-23T21:38:53.930Z,12.41
2023-04-23T21:41:21.512Z,12.44
2023-04-23T21:46:30.583Z,12.61
2023-04-23T21:49:10.634Z,12.70
2023-04-23T21:51:46.459Z,12.70
2023-04-23T21:54:20.660Z,12.72
2023-04-23T21:57:05.615Z,12.75
2023-04-23T22:10:21.913Z,12.65
2023-04-23T22:13:00.398Z,12.68
2023-04-23T22:21:51.226Z,12.75
2023-04-23T23:23:36.665Z,11.67
2023-04-23T23:26:04.182Z,11.62
2023-04-23T23:28:31.802Z,11.61
2023-04-23T23:30:59.509Z,11.60
2023-04-23T23:33:27.295Z,11.56
2023-04-23T23:35:55.195Z,11.58
2023-04-23T23:38:22.727Z,11.55
2023-04-23T23:40:51.601Z,11.51
2023-04-23T23:43:19.099Z,11.48
2023-04-23T23:45:46.825Z,11.46
2023-04-23T23:48:14.410Z,11.43
2023-04-23T23:50:41.941Z,11.42
2023-04-23T23:53:09.462Z,11.44
2023-04-23T23:55:38.535Z,11.54
2023-04-23T23:58:07.517Z,11.62
